createdAt,value
2023-05-17T00:01:32.039Z,102459.22
2023-05-17T00:03:36.058Z,102457.56
2023-05-17T00:05:40.229Z,102455.00
2023-05-17T00:07:43.800Z,102457.72
2023-05-17T00:09:49.043Z,102464.03
2023-05-17T00:11:52.894Z,102461.56
2023-05-17T00:13:56.973Z,102455.56
2023-05-17T00:16:00.857Z,102458.28
2023-05-17T00:18:04.969Z,102467.28
2023-05-17T00:20:09.795Z,102461.25
2023-05-17T00:22:13.510Z,102464.03
2023-05-17T00:24:17.385Z,102466.81
2023-05-17T00:26:22.800Z,102470.53
2023-05-17T00:28:26.594Z,102476.00
2023-05-17T00:30:30.304Z,102470.00
2023-05-17T00:32:34.023Z,102466.72
2023-05-17T00:34:37.864Z,102458.84
2023-05-17T00:36:41.423Z,102471.53
2023-05-17T00:38:45.896Z,102474.41
2023-05-17T00:40:51.112Z,102478.91
2023-05-17T00:42:56.421Z,102471.22
2023-05-17T00:44:59.985Z,102469.63
2023-05-17T00:47:03.836Z,102470.66
2023-05-17T00:49:07.562Z,102466.34
2023-05-17T00:51:11.786Z,102472.66
2023-05-17T00:53:16.643Z,102471.94
2023-05-17T00:55:20.892Z,102469.31
2023-05-17T00:57:24.650Z,102474.63
2023-05-17T00:59:31.165Z,102471.06
2023-05-17T01:01:36.665Z,102479.94
2023-05-17T01:03:40.800Z,102475.63
2023-05-17T01:05:44.845Z,102478.28
2023-05-17T01:07:48.678Z,102488.03
2023-05-17T01:09:53.202Z,102489.09
2023-05-17T01:12:17.294Z,102491.06
2023-05-17T01:14:36.632Z,102489.47
2023-05-17T01:16:45.884Z,102491.31
2023-05-17T01:18:58.011Z,102487.84
2023-05-17T01:21:03.339Z,102483.44
2023-05-17T01:23:29.492Z,102480.84
2023-05-17T01:25:47.870Z,102480.94
2023-05-17T01:27:55.830Z,102480.16
2023-05-17T01:30:00.585Z,102471.38
2023-05-17T01:32:04.995Z,102476.81
2023-05-17T01:34:09.496Z,102476.00
2023-05-17T01:36:13.306Z,102473.47
2023-05-17T01:38:18.381Z,102477.13
2023-05-17T01:40:22.963Z,102480.72
2023-05-17T01:42:32.514Z,102480.72
2023-05-17T01:44:44.869Z,102478.09
2023-05-17T01:46:50.132Z,102475.50
2023-05-17T01:49:02.154Z,102472.00
2023-05-17T01:51:06.951Z,102475.56
2023-05-17T01:53:13.513Z,102470.41
2023-05-17T01:55:22.698Z,102469.72
2023-05-17T01:57:31.003Z,102473.28
2023-05-17T01:59:36.541Z,102472.44
2023-05-17T02:01:43.281Z,102467.97
2023-05-17T02:03:49.737Z,102466.28
2023-05-17T02:05:53.975Z,102467.19
2023-05-17T02:07:58.013Z,102471.75
2023-05-17T02:10:01.936Z,102470.06
2023-05-17T02:12:06.283Z,102469.41
2023-05-17T02:14:11.201Z,102465.19
2023-05-17T02:16:14.747Z,102468.84
2023-05-17T02:18:22.270Z,102468.09
2023-05-17T02:20:26.517Z,102470.81
2023-05-17T02:22:30.099Z,102464.69
2023-05-17T02:24:34.733Z,102470.94
2023-05-17T02:26:38.545Z,102471.00
2023-05-17T02:28:42.228Z,102476.28
2023-05-17T02:30:46.469Z,102473.63
2023-05-17T02:32:50.451Z,102471.00
2023-05-17T02:34:55.660Z,102480.75
2023-05-17T02:37:00.296Z,102480.81
2023-05-17T02:39:03.989Z,102466.72
2023-05-17T02:41:08.674Z,102471.09
2023-05-17T02:43:12.328Z,102467.66
2023-05-17T02:45:15.990Z,102467.75
2023-05-17T02:47:21.365Z,102464.41
2023-05-17T02:49:25.439Z,102466.34
2023-05-17T02:51:31.487Z,102467.31
2023-05-17T02:53:35.258Z,102472.72
2023-05-17T02:55:39.536Z,102474.63
2023-05-17T02:57:43.548Z,102459.69
2023-05-17T02:59:48.026Z,102457.97
2023-05-17T03:01:52.057Z,102466.72
2023-05-17T03:03:56.415Z,102465.97
2023-05-17T03:06:02.982Z,102460.78
2023-05-17T03:08:08.375Z,102465.25
2023-05-17T03:10:12.168Z,102465.25
2023-05-17T03:12:19.817Z,102459.13
2023-05-17T03:14:23.834Z,102457.50
2023-05-17T03:16:27.253Z,102451.34
2023-05-17T03:18:31.047Z,102452.44
2023-05-17T03:20:34.933Z,102451.63
2023-05-17T03:22:38.367Z,102451.72
2023-05-17T03:24:43.330Z,102443.91
2023-05-17T03:26:46.596Z,102439.47
2023-05-17T03:28:50.437Z,102444.69
2023-05-17T03:30:55.664Z,102449.03
2023-05-17T03:32:59.325Z,102446.31
2023-05-17T03:35:02.820Z,102461.31
2023-05-17T03:37:06.803Z,102458.66
2023-05-17T03:39:10.371Z,102455.19
2023-05-17T03:41:17.541Z,102458.78
2023-05-17T03:43:21.445Z,102454.53
2023-05-17T03:45:25.748Z,102453.69
2023-05-17T03:47:29.272Z,102445.72
2023-05-17T03:49:32.830Z,102443.19
2023-05-17T03:51:36.370Z,102452.97
2023-05-17T03:53:43.480Z,102453.91
2023-05-17T03:55:47.301Z,102451.34
2023-05-17T03:57:53.381Z,102451.53
2023-05-17T03:59:56.894Z,102453.31
2023-05-17T04:02:00.283Z,102461.25
2023-05-17T04:04:04.611Z,102446.16
2023-05-17T04:06:10.358Z,102448.69
2023-05-17T04:08:15.324Z,102455.63
2023-05-17T04:10:18.728Z,102449.34
2023-05-17T04:12:22.615Z,102445.78
2023-05-17T04:14:27.416Z,102454.72
2023-05-17T04:16:32.350Z,102452.97
2023-05-17T04:18:37.316Z,102457.47
2023-05-17T04:20:40.970Z,102448.69
2023-05-17T04:22:44.383Z,102446.13
2023-05-17T04:24:48.540Z,102447.84
2023-05-17T04:26:52.027Z,102450.44
2023-05-17T04:29:00.099Z,102449.53
2023-05-17T04:31:08.432Z,102451.19
2023-05-17T04:33:14.087Z,102454.72
2023-05-17T04:35:17.860Z,102452.19
2023-05-17T04:37:24.360Z,102444.28
2023-05-17T04:39:31.420Z,102443.31
2023-05-17T04:41:35.130Z,102445.13
2023-05-17T04:43:42.158Z,102439.84
2023-05-17T04:45:57.954Z,102444.28
2023-05-17T04:48:03.047Z,102446.94
2023-05-17T04:50:07.861Z,102451.41
2023-05-17T04:52:12.594Z,102447.91
2023-05-17T04:54:16.070Z,102449.66
2023-05-17T04:56:20.124Z,102450.44
2023-05-17T04:58:24.367Z,102457.47
2023-05-17T05:00:31.539Z,102462.75
2023-05-17T05:02:40.374Z,102452.06
2023-05-17T05:04:45.885Z,102458.97
2023-05-17T05:06:50.263Z,102463.19
2023-05-17T05:08:54.563Z,102465.78
2023-05-17T05:10:58.313Z,102469.25
2023-05-17T05:13:02.282Z,102473.63
2023-05-17T05:15:06.611Z,102474.41
2023-05-17T05:17:12.114Z,102475.19
2023-05-17T05:19:17.259Z,102479.41
2023-05-17T05:21:23.103Z,102476.56
2023-05-17T05:23:26.715Z,102474.63
2023-05-17T05:25:30.832Z,102479.72
2023-05-17T05:27:35.689Z,102474.28
2023-05-17T05:29:39.076Z,102482.97
2023-05-17T05:31:43.196Z,102488.13
2023-05-17T05:33:47.581Z,102487.13
2023-05-17T05:35:51.134Z,102483.31
2023-05-17T05:37:56.098Z,102483.06
2023-05-17T05:40:00.133Z,102486.22
2023-05-17T05:42:03.567Z,102498.31
2023-05-17T05:44:07.578Z,102498.09
2023-05-17T05:46:12.007Z,102508.28
2023-05-17T05:48:17.022Z,102514.94
2023-05-17T05:50:20.860Z,102517.25
2023-05-17T05:52:25.600Z,102516.75
2023-05-17T05:54:30.438Z,102520.72
2023-05-17T05:56:34.908Z,102516.59
2023-05-17T05:58:38.642Z,102514.25
2023-05-17T06:00:43.318Z,102522.50
2023-05-17T06:02:47.142Z,102512.19
2023-05-17T06:04:50.690Z,102524.66
2023-05-17T06:06:56.318Z,102522.75
2023-05-17T06:08:59.875Z,102520.69
2023-05-17T06:11:04.772Z,102528.19
2023-05-17T06:13:08.186Z,102531.47
2023-05-17T06:15:12.373Z,102528.69
2023-05-17T06:17:15.857Z,102511.53
2023-05-17T06:19:20.627Z,102525.41
2023-05-17T06:21:23.874Z,102526.63
2023-05-17T06:23:27.293Z,102525.91
2023-05-17T06:25:30.738Z,102531.94
2023-05-17T06:27:35.675Z,102533.50
2023-05-17T06:29:39.168Z,102527.88
2023-05-17T06:31:42.510Z,102532.34
2023-05-17T06:33:45.946Z,102530.50
2023-05-17T06:37:57.931Z,102519.56
2023-05-17T06:40:14.697Z,102520.03
2023-05-17T06:42:19.611Z,102527.53
2023-05-17T06:44:25.178Z,102518.69
2023-05-17T06:46:28.611Z,102519.19
2023-05-17T06:48:32.235Z,102520.69
2023-05-17T06:50:36.320Z,102520.66
2023-05-17T06:52:39.817Z,102511.13
2023-05-17T06:54:43.134Z,102511.03
2023-05-17T06:56:46.511Z,102517.50
2023-05-17T06:58:50.106Z,102517.09
2023-05-17T07:00:54.964Z,102516.31
2023-05-17T07:02:58.239Z,102507.66
2023-05-17T07:05:01.717Z,102517.72
2023-05-17T07:07:05.457Z,102515.28
2023-05-17T07:09:09.472Z,102522.84
2023-05-17T07:11:13.388Z,102519.59
2023-05-17T07:13:18.300Z,102516.88
2023-05-17T07:15:22.449Z,102516.88
2023-05-17T07:17:28.514Z,102516.84
2023-05-17T07:19:33.484Z,102513.28
2023-05-17T07:21:38.285Z,102511.13
2023-05-17T07:23:43.633Z,102504.16
2023-05-17T07:25:47.771Z,102508.19
2023-05-17T07:27:52.388Z,102504.09
2023-05-17T07:29:56.399Z,102507.03
2023-05-17T07:32:00.070Z,102510.53
2023-05-17T07:34:05.277Z,102504.66
2023-05-17T07:36:09.613Z,102497.97
2023-05-17T07:38:13.815Z,102499.72
2023-05-17T07:40:24.144Z,102492.81
2023-05-17T07:42:28.093Z,102501.00
2023-05-17T07:44:31.605Z,102498.72
2023-05-17T07:46:35.630Z,102504.25
2023-05-17T07:48:39.483Z,102505.31
2023-05-17T07:50:47.287Z,102505.72
2023-05-17T07:52:53.611Z,102502.50
2023-05-17T07:54:57.434Z,102494.59
2023-05-17T07:57:01.323Z,102489.72
2023-05-17T07:59:06.111Z,102493.88
2023-05-17T08:01:10.498Z,102495.59
2023-05-17T08:03:17.087Z,102491.75
2023-05-17T08:05:21.219Z,102499.28
2023-05-17T08:07:30.451Z,102491.31
2023-05-17T08:09:34.318Z,102492.72
2023-05-17T08:11:42.097Z,102490.00
2023-05-17T08:13:46.000Z,102492.88
2023-05-17T08:15:51.559Z,102488.91
2023-05-17T08:17:55.875Z,102488.69
2023-05-17T08:19:59.913Z,102487.34
2023-05-17T08:22:03.887Z,102483.06
2023-05-17T08:24:09.547Z,102484.69
2023-05-17T08:26:14.115Z,102488.28
2023-05-17T08:28:18.248Z,102489.59
2023-05-17T08:32:32.309Z,102486.56
2023-05-17T08:34:36.960Z,102488.38
2023-05-17T08:36:43.484Z,102500.69
2023-05-17T08:38:47.239Z,102493.69
2023-05-17T08:40:56.362Z,102497.84
2023-05-17T08:43:00.665Z,102489.94
2023-05-17T08:45:04.419Z,102488.50
2023-05-17T08:47:12.369Z,102482.94
2023-05-17T08:49:16.982Z,102481.91
2023-05-17T08:51:21.439Z,102480.63
2023-05-17T08:53:26.809Z,102473.56
2023-05-17T08:55:33.336Z,102476.00
2023-05-17T08:57:40.647Z,102477.63
2023-05-17T08:59:45.469Z,102472.84
2023-05-17T09:01:51.203Z,102476.81
2023-05-17T09:03:55.234Z,102479.50
2023-05-17T09:06:00.365Z,102483.47
2023-05-17T09:08:04.220Z,102483.22
2023-05-17T09:10:09.046Z,102482.34
2023-05-17T09:12:13.319Z,102480.25
2023-05-17T09:14:18.826Z,102478.38
2023-05-17T09:16:22.745Z,102479.81
2023-05-17T09:18:33.251Z,102473.66
2023-05-17T09:20:39.174Z,102476.31
2023-05-17T09:22:42.863Z,102479.78
2023-05-17T09:24:47.097Z,102475.97
2023-05-17T09:26:50.905Z,102470.38
2023-05-17T09:28:54.758Z,102482.22
2023-05-17T09:31:06.954Z,102479.25
2023-05-17T09:33:13.966Z,102479.25
2023-05-17T09:35:20.732Z,102474.28
2023-05-17T09:37:26.293Z,102477.56
2023-05-17T09:39:29.985Z,102479.66
2023-05-17T09:41:34.298Z,102480.88
2023-05-17T09:43:38.632Z,102478.31
2023-05-17T09:45:42.310Z,102490.34
2023-05-17T09:47:48.438Z,102491.69
2023-05-17T09:49:52.622Z,102482.41
2023-05-17T09:51:57.304Z,102483.94
2023-05-17T09:54:01.437Z,102482.66
2023-05-17T09:56:07.960Z,102480.69
2023-05-17T09:58:11.946Z,102479.59
2023-05-17T10:00:19.914Z,102478.09
2023-05-17T10:02:28.066Z,102470.16
2023-05-17T10:04:38.038Z,102480.41
2023-05-17T10:06:51.464Z,102475.53
2023-05-17T10:08:59.542Z,102474.28
2023-05-17T10:11:09.142Z,102474.88
2023-05-17T10:13:15.785Z,102469.66
2023-05-17T10:15:20.048Z,102468.09
2023-05-17T10:17:24.927Z,102465.03
2023-05-17T10:19:29.323Z,102467.22
2023-05-17T10:21:35.039Z,102461.63
2023-05-17T10:23:40.711Z,102459.53
2023-05-17T10:25:45.131Z,102456.84
2023-05-17T10:27:50.352Z,102453.06
2023-05-17T10:29:55.531Z,102458.44
2023-05-17T10:32:00.499Z,102448.78
2023-05-17T10:34:06.045Z,102455.16
2023-05-17T10:36:11.344Z,102445.09
2023-05-17T10:38:16.813Z,102445.38
2023-05-17T10:40:23.023Z,102455.22
2023-05-17T10:42:29.573Z,102447.91
2023-05-17T10:44:35.099Z,102452.69
2023-05-17T10:46:38.747Z,102441.03
2023-05-17T10:48:42.945Z,102442.44
2023-05-17T10:51:00.658Z,102449.72
2023-05-17T10:53:10.823Z,102447.78
2023-05-17T10:55:19.644Z,102450.09
2023-05-17T10:57:46.808Z,102447.91
2023-05-17T11:00:01.874Z,102450.84
2023-05-17T11:02:07.580Z,102452.59
2023-05-17T11:04:23.152Z,102443.69
2023-05-17T11:06:27.017Z,102431.91
2023-05-17T11:08:32.839Z,102442.63
2023-05-17T11:10:40.140Z,102435.72
2023-05-17T11:12:46.189Z,102431.81
2023-05-17T11:14:53.718Z,102431.66
2023-05-17T11:16:58.737Z,102433.00
2023-05-17T11:19:10.455Z,102435.41
2023-05-17T11:21:16.496Z,102433.97
2023-05-17T11:23:22.948Z,102430.19
2023-05-17T11:25:30.013Z,102423.97
2023-05-17T11:27:39.506Z,102436.66
2023-05-17T11:29:44.028Z,102422.25
2023-05-17T11:31:52.812Z,102437.81
2023-05-17T11:33:57.113Z,102432.44
2023-05-17T11:36:07.074Z,102426.53
2023-05-17T11:38:19.500Z,102430.78
2023-05-17T11:40:28.378Z,102433.47
2023-05-17T11:42:32.998Z,102431.78
2023-05-17T11:44:39.975Z,102431.41
2023-05-17T11:46:44.802Z,102439.34
2023-05-17T11:48:48.558Z,102433.34
2023-05-17T11:50:54.288Z,102428.19
2023-05-17T11:53:00.426Z,102430.91
2023-05-17T11:55:06.755Z,102427.91
2023-05-17T11:57:11.172Z,102429.50
2023-05-17T11:59:21.233Z,102429.50
2023-05-17T12:01:26.399Z,102428.03
2023-05-17T12:03:31.871Z,102422.25
2023-05-17T12:05:35.734Z,102426.81
2023-05-17T12:07:39.921Z,102419.94
2023-05-17T12:09:48.008Z,102417.94
2023-05-17T12:11:51.773Z,102409.06
2023-05-17T12:13:56.022Z,102412.69
2023-05-17T12:16:02.645Z,102416.75
2023-05-17T12:18:08.044Z,102409.00
2023-05-17T12:20:12.838Z,102404.66
2023-05-17T12:22:16.174Z,102407.16
2023-05-17T12:24:19.759Z,102409.81
2023-05-17T12:26:25.533Z,102413.84
2023-05-17T12:28:29.376Z,102408.09
2023-05-17T12:30:33.145Z,102402.63
2023-05-17T12:32:36.978Z,102399.47
2023-05-17T12:34:42.491Z,102408.88
2023-05-17T12:36:47.184Z,102406.06
2023-05-17T12:38:51.036Z,102402.38
2023-05-17T12:40:55.640Z,102411.41
2023-05-17T12:43:05.194Z,102401.75
2023-05-17T12:45:13.276Z,102412.19
2023-05-17T12:47:18.127Z,102400.72
2023-05-17T12:49:23.572Z,102391.00
2023-05-17T12:51:29.123Z,102395.41
2023-05-17T12:53:37.893Z,102391.53
2023-05-17T12:55:42.180Z,102396.41
2023-05-17T12:57:52.357Z,102395.34
2023-05-17T12:59:56.487Z,102388.22
2023-05-17T13:02:01.397Z,102387.19
2023-05-17T13:04:05.738Z,102382.66
2023-05-17T13:06:11.568Z,102388.91
2023-05-17T13:08:22.886Z,102382.69
2023-05-17T13:10:28.672Z,102379.78
2023-05-17T13:12:32.895Z,102380.00
2023-05-17T13:14:45.307Z,102376.88
2023-05-17T13:16:50.146Z,102375.50
2023-05-17T13:18:55.917Z,102391.03
2023-05-17T13:20:59.784Z,102384.66
2023-05-17T13:23:03.898Z,102384.31
2023-05-17T13:25:09.827Z,102375.91
2023-05-17T13:27:14.056Z,102378.19
2023-05-17T13:29:20.706Z,102368.41
2023-05-17T13:31:29.170Z,102369.91
2023-05-17T13:33:32.979Z,102370.31
2023-05-17T13:35:37.854Z,102371.09
2023-05-17T13:37:41.467Z,102365.69
2023-05-17T13:39:45.389Z,102366.56
2023-05-17T13:41:50.594Z,102359.50
2023-05-17T13:43:54.386Z,102360.97
2023-05-17T13:45:59.243Z,102355.72
2023-05-17T13:48:03.079Z,102358.53
2023-05-17T13:50:08.663Z,102356.31
2023-05-17T13:52:13.636Z,102356.56
2023-05-17T13:54:17.627Z,102351.41
2023-05-17T13:56:22.473Z,102352.88
2023-05-17T13:58:27.696Z,102345.31
2023-05-17T14:00:31.493Z,102343.97
2023-05-17T14:02:35.496Z,102340.44
2023-05-17T14:04:39.717Z,102342.28
2023-05-17T14:06:43.737Z,102338.84
2023-05-17T14:08:47.754Z,102333.72
2023-05-17T14:10:51.694Z,102330.41
2023-05-17T14:12:55.186Z,102328.59
2023-05-17T14:15:00.626Z,102322.72
2023-05-17T14:17:05.656Z,102321.50
2023-05-17T14:19:11.336Z,102317.00
2023-05-17T14:21:16.764Z,102316.13
2023-05-17T14:23:21.616Z,102318.56
2023-05-17T14:25:27.499Z,102320.03
2023-05-17T14:27:32.604Z,102320.78
2023-05-17T14:29:38.915Z,102312.59
2023-05-17T14:31:47.090Z,102319.81
2023-05-17T14:33:52.927Z,102313.81
2023-05-17T14:35:59.113Z,102306.13
2023-05-17T14:38:04.588Z,102307.22
2023-05-17T14:40:10.552Z,102302.94
2023-05-17T14:42:15.983Z,102301.22
2023-05-17T14:44:24.137Z,102305.38
2023-05-17T14:46:29.592Z,102302.44
2023-05-17T14:48:37.413Z,102305.88
2023-05-17T14:50:43.840Z,102301.47
2023-05-17T14:52:49.738Z,102296.22
2023-05-17T14:54:55.973Z,102300.75
2023-05-17T14:57:00.989Z,102291.69
2023-05-17T14:59:06.509Z,102287.06
2023-05-17T15:01:18.499Z,102285.22
2023-05-17T15:03:23.595Z,102285.47
2023-05-17T15:05:31.576Z,102277.78
2023-05-17T15:07:36.558Z,102279.25
2023-05-17T15:09:41.944Z,102273.34
2023-05-17T15:11:46.289Z,102269.94
2023-05-17T15:13:50.943Z,102267.38
2023-05-17T15:15:55.797Z,102262.09
2023-05-17T15:18:01.459Z,102260.75
2023-05-17T15:20:07.139Z,102257.69
2023-05-17T15:22:14.360Z,102260.88
2023-05-17T15:24:18.611Z,102259.50
2023-05-17T15:26:25.365Z,102248.47
2023-05-17T15:28:30.222Z,102258.41
2023-05-17T15:30:34.807Z,102259.38
2023-05-17T15:32:38.907Z,102260.34
2023-05-17T15:34:42.697Z,102243.84
2023-05-17T15:36:49.370Z,102258.53
2023-05-17T15:38:55.724Z,102243.50
2023-05-17T15:41:05.247Z,102245.81
2023-05-17T15:43:09.137Z,102244.38
2023-05-17T15:45:13.217Z,102243.25
2023-05-17T15:47:16.927Z,102241.19
2023-05-17T15:49:21.040Z,102240.09
2023-05-17T15:51:25.090Z,102240.34
2023-05-17T15:53:30.623Z,102240.34
2023-05-17T15:55:36.171Z,102237.75
2023-05-17T15:57:40.321Z,102243.41
2023-05-17T15:59:44.603Z,102241.69
2023-05-17T16:01:48.575Z,102234.75
2023-05-17T16:03:52.791Z,102236.41
2023-05-17T16:05:57.048Z,102237.44
2023-05-17T16:08:01.759Z,102229.72
2023-05-17T16:10:06.757Z,102219.22
2023-05-17T16:12:12.905Z,102222.03
2023-05-17T16:14:18.308Z,102230.09
2023-05-17T16:16:22.421Z,102232.03
2023-05-17T16:18:27.220Z,102220.06
2023-05-17T16:20:31.637Z,102221.31
2023-05-17T16:22:36.332Z,102215.81
2023-05-17T16:24:40.765Z,102222.03
2023-05-17T16:26:47.078Z,102217.78
2023-05-17T16:28:52.679Z,102211.53
2023-05-17T16:30:57.133Z,102214.22
2023-05-17T16:33:04.977Z,102211.53
2023-05-17T16:35:12.650Z,102216.91
2023-05-17T16:37:17.682Z,102214.22
2023-05-17T16:39:22.039Z,102210.44
2023-05-17T16:41:29.133Z,102212.97
2023-05-17T16:43:33.018Z,102215.66
2023-05-17T16:45:39.365Z,102209.72
2023-05-17T16:47:43.829Z,102205.78
2023-05-17T16:49:47.855Z,102218.00
2023-05-17T16:51:52.484Z,102217.38
2023-05-17T16:53:56.282Z,102220.59
2023-05-17T16:56:00.365Z,102219.63
2023-05-17T16:58:05.189Z,102214.72
2023-05-17T17:00:11.973Z,102214.97
2023-05-17T17:02:18.234Z,102210.81
2023-05-17T17:04:25.268Z,102221.03
2023-05-17T17:06:30.375Z,102215.91
2023-05-17T17:08:33.937Z,102211.00
2023-05-17T17:10:38.836Z,102215.84
2023-05-17T17:12:43.313Z,102216.09
2023-05-17T17:14:47.469Z,102211.94
2023-05-17T17:16:51.546Z,102204.00
2023-05-17T17:18:57.496Z,102206.19
2023-05-17T17:21:04.793Z,102209.00
2023-05-17T17:23:10.608Z,102216.94
2023-05-17T17:25:14.860Z,102215.84
2023-05-17T17:27:19.947Z,102220.25
2023-05-17T17:29:26.536Z,102211.94
2023-05-17T17:31:30.698Z,102220.75
2023-05-17T17:33:35.124Z,102219.03
2023-05-17T17:35:42.074Z,102214.63
2023-05-17T17:37:45.912Z,102213.91
2023-05-17T17:39:49.877Z,102213.91
2023-05-17T17:41:53.896Z,102213.91
2023-05-17T17:43:57.855Z,102214.75
2023-05-17T17:46:02.337Z,102210.13
2023-05-17T17:48:05.967Z,102219.03
2023-05-17T17:50:11.012Z,102208.28
2023-05-17T17:52:15.764Z,102212.06
2023-05-17T17:54:19.454Z,102210.34
2023-05-17T17:56:25.617Z,102210.59
2023-05-17T17:58:31.297Z,102212.66
2023-05-17T18:00:35.117Z,102212.91
2023-05-17T18:02:39.333Z,102206.06
2023-05-17T18:04:43.186Z,102206.31
2023-05-17T18:06:48.119Z,102205.06
2023-05-17T18:08:54.197Z,102215.41
2023-05-17T18:10:59.336Z,102211.38
2023-05-17T18:13:03.740Z,102213.78
2023-05-17T18:15:08.641Z,102209.59
2023-05-17T18:17:12.485Z,102205.44
2023-05-17T18:19:16.417Z,102207.63
2023-05-17T18:21:20.491Z,102209.56
2023-05-17T18:23:24.589Z,102211.53
2023-05-17T18:25:30.573Z,102209.91
2023-05-17T18:27:35.405Z,102205.63
2023-05-17T18:29:38.735Z,102204.13
2023-05-17T18:31:42.721Z,102212.16
2023-05-17T18:33:47.108Z,102206.91
2023-05-17T18:35:52.069Z,102209.84
2023-05-17T18:37:55.743Z,102218.22
2023-05-17T18:40:02.284Z,102215.88
2023-05-17T18:42:08.210Z,102207.31
2023-05-17T18:44:14.392Z,102212.91
2023-05-17T18:46:19.237Z,102209.59
2023-05-17T18:48:23.712Z,102217.88
2023-05-17T18:50:28.690Z,102220.66
2023-05-17T18:52:33.666Z,102223.66
2023-05-17T18:54:40.935Z,102212.31
2023-05-17T18:56:45.293Z,102213.41
2023-05-17T18:58:52.323Z,102219.72
2023-05-17T19:00:56.607Z,102221.63
2023-05-17T19:03:00.378Z,102220.91
2023-05-17T19:05:06.039Z,102221.88
2023-05-17T19:07:10.185Z,102224.56
2023-05-17T19:09:13.985Z,102227.47
2023-05-17T19:11:18.066Z,102219.84
2023-05-17T19:13:22.109Z,102220.94
2023-05-17T19:15:27.841Z,102215.78
2023-05-17T19:17:32.736Z,102221.50
2023-05-17T19:19:37.288Z,102218.16
2023-05-17T19:21:41.103Z,102216.56
2023-05-17T19:23:45.983Z,102216.78
2023-05-17T19:25:50.105Z,102212.59
2023-05-17T19:27:54.320Z,102214.56
2023-05-17T19:29:58.445Z,102215.75
2023-05-17T19:32:05.080Z,102221.28
2023-05-17T19:34:09.146Z,102211.75
2023-05-17T19:36:13.512Z,102221.84
2023-05-17T19:38:20.633Z,102222.13
2023-05-17T19:40:24.588Z,102217.94
2023-05-17T19:42:31.884Z,102224.59
2023-05-17T19:44:39.570Z,102217.94
2023-05-17T19:46:43.482Z,102228.13
2023-05-17T19:49:10.277Z,102223.28
2023-05-17T19:51:14.726Z,102227.25
2023-05-17T19:53:19.103Z,102237.41
2023-05-17T19:55:26.518Z,102237.84
2023-05-17T19:57:31.070Z,102242.53
2023-05-17T19:59:34.884Z,102237.38
2023-05-17T20:01:38.752Z,102242.19
2023-05-17T20:03:43.006Z,102236.19
2023-05-17T20:05:48.587Z,102231.03
2023-05-17T20:07:52.372Z,102244.50
2023-05-17T20:09:57.604Z,102242.06
2023-05-17T20:12:03.337Z,102240.66
2023-05-17T20:14:07.702Z,102240.84
2023-05-17T20:16:13.770Z,102238.38
2023-05-17T20:18:18.127Z,102244.78
2023-05-17T20:20:22.835Z,102240.59
2023-05-17T20:22:28.320Z,102249.75
2023-05-17T20:24:34.991Z,102247.31
2023-05-17T20:26:39.826Z,102249.13
2023-05-17T20:28:43.722Z,102259.94
2023-05-17T20:30:48.719Z,102263.56
2023-05-17T20:32:52.708Z,102263.75
2023-05-17T20:34:58.238Z,102263.00
2023-05-17T20:37:05.150Z,102271.19
2023-05-17T20:39:15.420Z,102267.00
2023-05-17T20:41:19.693Z,102270.81
2023-05-17T20:43:29.035Z,102281.63
2023-05-17T20:45:34.454Z,102278.38
2023-05-17T20:47:39.104Z,102268.84
2023-05-17T20:49:44.686Z,102281.34
2023-05-17T20:51:54.713Z,102276.38
2023-05-17T20:54:00.563Z,102281.94
2023-05-17T20:56:14.414Z,102285.75
2023-05-17T20:58:19.524Z,102281.44
2023-05-17T21:00:26.475Z,102285.28
2023-05-17T21:02:31.222Z,102283.75
2023-05-17T21:04:37.576Z,102286.53
2023-05-17T21:06:44.908Z,102284.78
2023-05-17T21:08:48.900Z,102280.50
2023-05-17T21:10:53.734Z,102282.31
2023-05-17T21:13:02.352Z,102286.88
2023-05-17T21:15:15.943Z,102287.09
2023-05-17T21:17:21.391Z,102283.63
2023-05-17T21:19:26.174Z,102287.28
2023-05-17T21:21:31.294Z,102294.31
2023-05-17T21:23:35.780Z,102299.66
2023-05-17T21:25:40.998Z,102292.63
2023-05-17T21:27:45.935Z,102289.19
2023-05-17T21:29:51.767Z,102293.84
2023-05-17T21:31:56.352Z,102304.72
2023-05-17T21:36:07.857Z,102302.16
2023-05-17T21:38:13.926Z,102307.59
2023-05-17T21:40:18.624Z,102302.44
2023-05-17T21:42:24.414Z,102307.88
2023-05-17T21:44:29.869Z,102298.25
2023-05-17T21:46:35.896Z,102309.88
2023-05-17T21:48:40.644Z,102307.28
2023-05-17T21:50:45.600Z,102304.81
2023-05-17T21:52:51.053Z,102304.88
2023-05-17T21:54:55.455Z,102314.72
2023-05-17T21:57:00.366Z,102304.88
2023-05-17T21:59:05.225Z,102320.06
2023-05-17T22:01:10.142Z,102310.31
2023-05-17T22:03:16.537Z,102311.28
2023-05-17T22:05:21.160Z,102308.78
2023-05-17T22:07:25.734Z,102309.81
2023-05-17T22:09:30.525Z,102307.16
2023-05-17T22:11:38.636Z,102309.16
2023-05-17T22:13:43.784Z,102308.38
2023-05-17T22:15:48.933Z,102305.91
2023-05-17T22:17:54.739Z,102306.09
2023-05-17T22:20:04.628Z,102306.34
2023-05-17T22:22:09.551Z,102307.69
2023-05-17T22:24:20.404Z,102305.25
2023-05-17T22:26:25.237Z,102307.13
2023-05-17T22:28:29.394Z,102300.16
2023-05-17T22:30:34.727Z,102304.66
2023-05-17T22:32:40.500Z,102303.88
2023-05-17T22:34:45.610Z,102303.22
2023-05-17T22:36:52.637Z,102302.53
2023-05-17T22:38:58.151Z,102303.56
2023-05-17T22:41:02.651Z,102301.91
2023-05-17T22:43:09.241Z,102297.81
2023-05-17T22:45:14.691Z,102304.28
2023-05-17T22:47:23.356Z,102297.28
2023-05-17T22:49:27.817Z,102299.31
2023-05-17T22:51:35.420Z,102304.88
2023-05-17T22:53:41.787Z,102305.81
2023-05-17T22:55:49.267Z,102312.13
2023-05-17T22:57:54.245Z,102314.94
2023-05-17T22:59:58.684Z,102309.69
2023-05-17T23:02:04.052Z,102312.47
2023-05-17T23:04:08.936Z,102317.88
2023-05-17T23:06:13.400Z,102316.25
2023-05-17T23:08:17.624Z,102307.41
2023-05-17T23:10:23.974Z,102312.03
2023-05-17T23:12:28.652Z,102307.72
2023-05-17T23:14:33.318Z,102311.44
2023-05-17T23:16:38.261Z,102313.34
2023-05-17T23:18:42.194Z,102311.88
2023-05-17T23:20:49.193Z,102309.31
2023-05-17T23:22:54.319Z,102309.44
2023-05-17T23:24:59.688Z,102310.47
2023-05-17T23:27:10.381Z,102315.97
2023-05-17T23:29:15.705Z,102313.59
2023-05-17T23:31:22.289Z,102307.47
2023-05-17T23:33:31.467Z,102314.69
2023-05-17T23:35:36.216Z,102313.91
2023-05-17T23:37:40.617Z,102316.66
2023-05-17T23:39:44.869Z,102304.34
2023-05-17T23:41:49.189Z,102303.59
2023-05-17T23:43:54.668Z,102302.03
2023-05-17T23:45:59.473Z,102312.00
2023-05-17T23:48:04.239Z,102307.69
2023-05-17T23:50:09.977Z,102313.91
2023-05-17T23:52:15.802Z,102311.28
2023-05-17T23:54:20.316Z,102315.84
2023-05-17T23:56:26.926Z,102320.25
2023-05-17T23:58:31.749Z,102307.03
